sensor_id;sensor_type;location;lat;lon;timestamp;temperature;humidity
9980;DHT22;5030;51.532;6.766;2022-10-28T00:01:13;18.50;99.90
9980;DHT22;5030;51.532;6.766;2022-10-28T00:03:45;18.50;99.90
9980;DHT22;5030;51.532;6.766;2022-10-28T00:06:14;18.40;99.90
9980;DHT22;5030;51.532;6.766;2022-10-28T00:08:41;18.50;99.90
9980;DHT22;5030;51.532;6.766;2022-10-28T00:11:12;18.40;99.90
9980;DHT22;5030;51.532;6.766;2022-10-28T00:13:38;18.30;99.90
9980;DHT22;5030;51.532;6.766;2022-10-28T00:16:10;18.40;99.90
9980;DHT22;5030;51.532;6.766;2022-10-28T00:18:37;18.40;99.90
9980;DHT22;5030;51.532;6.766;2022-10-28T00:21:08;18.30;99.90
9980;DHT22;5030;51.532;6.766;2022-10-28T00:23:34;18.30;99.90
9980;DHT22;5030;51.532;6.766;2022-10-28T00:26:08;18.40;99.90
9980;DHT22;5030;51.532;6.766;2022-10-28T00:28:35;18.50;99.90
9980;DHT22;5030;51.532;6.766;2022-10-28T00:31:05;18.50;99.90
9980;DHT22;5030;51.532;6.766;2022-10-28T00:33:31;18.60;99.90
9980;DHT22;5030;51.532;6.766;2022-10-28T00:39:02;18.60;99.90
9980;DHT22;5030;51.532;6.766;2022-10-28T00:43:56;18.50;99.90
9980;DHT22;5030;51.532;6.766;2022-10-28T00:49:25;18.60;99.90
9980;DHT22;5030;51.532;6.766;2022-10-28T00:51:59;18.70;99.90
9980;DHT22;5030;51.532;6.766;2022-10-28T00:54:25;18.60;99.90
9980;DHT22;5030;51.532;6.766;2022-10-28T00:56:54;18.60;99.90
9980;DHT22;5030;51.532;6.766;2022-10-28T00:59:24;18.60;99.90
9980;DHT22;5030;51.532;6.766;2022-10-28T01:01:51;18.50;99.90
9980;DHT22;5030;51.532;6.766;2022-10-28T01:04:17;18.40;99.90
9980;DHT22;5030;51.532;6.766;2022-10-28T01:06:43;18.40;99.90
9980;DHT22;5030;51.532;6.766;2022-10-28T01:09:10;18.40;99.90
9980;DHT22;5030;51.532;6.766;2022-10-28T01:25:14;18.40;99.90
9980;DHT22;5030;51.532;6.766;2022-10-28T01:28:01;18.50;99.90
9980;DHT22;5030;51.532;6.766;2022-10-28T01:31:03;18.40;99.90
9980;DHT22;5030;51.532;6.766;2022-10-28T01:33:38;18.20;99.90
9980;DHT22;5030;51.532;6.766;2022-10-28T01:38:48;18.20;99.90
9980;DHT22;5030;51.532;6.766;2022-10-28T01:41:39;18.10;99.90
9980;DHT22;5030;51.532;6.766;2022-10-28T01:52:24;17.90;99.90
9980;DHT22;5030;51.532;6.766;2022-10-28T01:54:55;17.80;99.90
9980;DHT22;5030;51.532;6.766;2022-10-28T01:59:59;17.90;99.90
9980;DHT22;5030;51.532;6.766;2022-10-28T02:02:25;17.90;99.90
9980;DHT22;5030;51.532;6.766;2022-10-28T02:05:46;17.80;99.90
9980;DHT22;5030;51.532;6.766;2022-10-28T02:07:55;17.80;99.90
9980;DHT22;5030;51.532;6.766;2022-10-28T02:10:30;17.80;99.90
9980;DHT22;5030;51.532;6.766;2022-10-28T02:13:01;17.70;99.90
9980;DHT22;5030;51.532;6.766;2022-10-28T02:15:31;17.60;99.90
9980;DHT22;5030;51.532;6.766;2022-10-28T02:20:52;17.60;99.90
9980;DHT22;5030;51.532;6.766;2022-10-28T02:23:27;17.50;99.90
9980;DHT22;5030;51.532;6.766;2022-10-28T02:26:16;17.60;99.90
9980;DHT22;5030;51.532;6.766;2022-10-28T02:31:57;17.40;99.90
9980;DHT22;5030;51.532;6.766;2022-10-28T02:34:32;17.30;99.90
9980;DHT22;5030;51.532;6.766;2022-10-28T02:37:04;17.40;99.90
9980;DHT22;5030;51.532;6.766;2022-10-28T02:39:40;17.30;99.90
9980;DHT22;5030;51.532;6.766;2022-10-28T02:42:21;17.40;99.90
9980;DHT22;5030;51.532;6.766;2022-10-28T02:44:53;17.40;99.90
9980;DHT22;5030;51.532;6.766;2022-10-28T02:47:24;17.30;99.90
9980;DHT22;5030;51.532;6.766;2022-10-28T02:49:54;17.30;99.90
9980;DHT22;5030;51.532;6.766;2022-10-28T02:52:21;17.20;99.90
9980;DHT22;5030;51.532;6.766;2022-10-28T02:54:53;17.30;99.90
9980;DHT22;5030;51.532;6.766;2022-10-28T02:57:22;17.30;99.90
9980;DHT22;5030;51.532;6.766;2022-10-28T03:00:00;17.20;99.90
9980;DHT22;5030;51.532;6.766;2022-10-28T03:02:27;17.10;99.90
9980;DHT22;5030;51.532;6.766;2022-10-28T03:04:53;17.10;99.90
9980;DHT22;5030;51.532;6.766;2022-10-28T03:07:19;17.00;99.90
9980;DHT22;5030;51.532;6.766;2022-10-28T03:09:44;16.90;99.90
9980;DHT22;5030;51.532;6.766;2022-10-28T03:12:10;16.90;99.90
9980;DHT22;5030;51.532;6.766;2022-10-28T03:14:36;16.90;99.90
9980;DHT22;5030;51.532;6.766;2022-10-28T03:17:02;17.00;99.90
9980;DHT22;5030;51.532;6.766;2022-10-28T03:19:27;17.00;99.90
9980;DHT22;5030;51.532;6.766;2022-10-28T03:21:53;17.00;99.90
9980;DHT22;5030;51.532;6.766;2022-10-28T03:24:19;17.00;99.90
9980;DHT22;5030;51.532;6.766;2022-10-28T03:26:45;17.00;99.90
9980;DHT22;5030;51.532;6.766;2022-10-28T03:29:10;17.00;99.90
9980;DHT22;5030;51.532;6.766;2022-10-28T03:31:36;16.90;99.90
9980;DHT22;5030;51.532;6.766;2022-10-28T03:34:01;16.80;99.90
9980;DHT22;5030;51.532;6.766;2022-10-28T03:36:27;16.70;99.90
9980;DHT22;5030;51.532;6.766;2022-10-28T03:38:52;16.60;99.90
9980;DHT22;5030;51.532;6.766;2022-10-28T03:41:18;16.60;99.90
9980;DHT22;5030;51.532;6.766;2022-10-28T03:43:44;16.60;99.90
9980;DHT22;5030;51.532;6.766;2022-10-28T03:46:10;16.50;99.90
9980;DHT22;5030;51.532;6.766;2022-10-28T03:48:35;16.50;99.90
9980;DHT22;5030;51.532;6.766;2022-10-28T03:51:01;16.50;99.90
9980;DHT22;5030;51.532;6.766;2022-10-28T03:53:27;16.50;99.90
9980;DHT22;5030;51.532;6.766;2022-10-28T03:55:57;16.40;99.90
9980;DHT22;5030;51.532;6.766;2022-10-28T03:58:23;16.40;99.90
9980;DHT22;5030;51.532;6.766;2022-10-28T04:00:50;16.40;99.90
9980;DHT22;5030;51.532;6.766;2022-10-28T04:03:17;16.40;99.90
9980;DHT22;5030;51.532;6.766;2022-10-28T04:05:43;16.30;99.90
9980;DHT22;5030;51.532;6.766;2022-10-28T04:08:09;16.30;99.90
9980;DHT22;5030;51.532;6.766;2022-10-28T04:10:36;16.20;99.90
9980;DHT22;5030;51.532;6.766;2022-10-28T04:13:28;16.30;99.90
9980;DHT22;5030;51.532;6.766;2022-10-28T04:15:54;16.40;99.90
9980;DHT22;5030;51.532;6.766;2022-10-28T04:18:20;16.40;99.90
9980;DHT22;5030;51.532;6.766;2022-10-28T04:20:45;16.50;99.90
9980;DHT22;5030;51.532;6.766;2022-10-28T04:23:15;16.30;99.90
9980;DHT22;5030;51.532;6.766;2022-10-28T04:25:42;16.30;99.90
9980;DHT22;5030;51.532;6.766;2022-10-28T04:28:09;16.30;99.90
9980;DHT22;5030;51.532;6.766;2022-10-28T04:30:35;16.30;99.90
9980;DHT22;5030;51.532;6.766;2022-10-28T04:33:00;16.10;99.90
9980;DHT22;5030;51.532;6.766;2022-10-28T04:35:26;16.10;99.90
9980;DHT22;5030;51.532;6.766;2022-10-28T04:37:52;16.10;99.90
9980;DHT22;5030;51.532;6.766;2022-10-28T04:40:17;16.00;99.90
9980;DHT22;5030;51.532;6.766;2022-10-28T04:42:43;16.00;99.90
9980;DHT22;5030;51.532;6.766;2022-10-28T04:45:09;15.90;99.90
9980;DHT22;5030;51.532;6.766;2022-10-28T04:47:35;15.90;99.90
9980;DHT22;5030;51.532;6.766;2022-10-28T04:50:01;15.90;99.90
9980;DHT22;5030;51.532;6.766;2022-10-28T04:52:26;15.80;99.90
9980;DHT22;5030;51.532;6.766;2022-10-28T04:54:52;15.80;99.90
9980;DHT22;5030;51.532;6.766;2022-10-28T04:57:18;15.80;99.90
9980;DHT22;5030;51.532;6.766;2022-10-28T04:59:43;15.90;99.90
9980;DHT22;5030;51.532;6.766;2022-10-28T05:02:10;16.00;99.90
9980;DHT22;5030;51.532;6.766;2022-10-28T05:04:35;15.90;99.90
9980;DHT22;5030;51.532;6.766;2022-10-28T05:07:01;15.90;99.90
9980;DHT22;5030;51.532;6.766;2022-10-28T05:09:27;15.90;99.90
9980;DHT22;5030;51.532;6.766;2022-10-28T05:11:52;15.90;99.90
9980;DHT22;5030;51.532;6.766;2022-10-28T05:14:18;15.90;99.90
9980;DHT22;5030;51.532;6.766;2022-10-28T05:16:44;16.00;99.90
9980;DHT22;5030;51.532;6.766;2022-10-28T05:19:09;15.90;99.90
9980;DHT22;5030;51.532;6.766;2022-10-28T05:21:35;15.90;99.90
9980;DHT22;5030;51.532;6.766;2022-10-28T05:24:01;15.90;99.90
9980;DHT22;5030;51.532;6.766;2022-10-28T05:26:26;15.90;99.90
9980;DHT22;5030;51.532;6.766;2022-10-28T05:28:52;15.80;99.90
9980;DHT22;5030;51.532;6.766;2022-10-28T05:31:18;15.80;99.90
9980;DHT22;5030;51.532;6.766;2022-10-28T05:33:43;15.90;99.90
9980;DHT22;5030;51.532;6.766;2022-10-28T05:36:09;15.90;99.90
9980;DHT22;5030;51.532;6.766;2022-10-28T05:38:35;15.90;99.90
9980;DHT22;5030;51.532;6.766;2022-10-28T05:41:01;16.00;99.90
9980;DHT22;5030;51.532;6.766;2022-10-28T05:43:27;15.90;99.90
9980;DHT22;5030;51.532;6.766;2022-10-28T05:45:54;15.90;99.90
9980;DHT22;5030;51.532;6.766;2022-10-28T05:48:20;15.90;99.90
9980;DHT22;5030;51.532;6.766;2022-10-28T05:50:46;15.80;99.90
9980;DHT22;5030;51.532;6.766;2022-10-28T05:53:12;15.80;99.90
9980;DHT22;5030;51.532;6.766;2022-10-28T05:55:39;15.70;99.90
9980;DHT22;5030;51.532;6.766;2022-10-28T05:58:04;15.70;99.90
9980;DHT22;5030;51.532;6.766;2022-10-28T06:00:30;15.70;99.90
9980;DHT22;5030;51.532;6.766;2022-10-28T06:03:04;15.70;99.90
9980;DHT22;5030;51.532;6.766;2022-10-28T06:05:34;15.70;99.90
9980;DHT22;5030;51.532;6.766;2022-10-28T06:07:59;15.70;99.90
9980;DHT22;5030;51.532;6.766;2022-10-28T06:10:25;15.70;99.90
9980;DHT22;5030;51.532;6.766;2022-10-28T06:12:53;15.70;99.90
9980;DHT22;5030;51.532;6.766;2022-10-28T06:15:18;15.80;99.90
9980;DHT22;5030;51.532;6.766;2022-10-28T06:17:49;15.80;99.90
9980;DHT22;5030;51.532;6.766;2022-10-28T06:20:15;15.80;99.90
9980;DHT22;5030;51.532;6.766;2022-10-28T06:22:49;15.80;99.90
9980;DHT22;5030;51.532;6.766;2022-10-28T06:25:16;15.80;99.90
9980;DHT22;5030;51.532;6.766;2022-10-28T06:27:42;15.80;99.90
9980;DHT22;5030;51.532;6.766;2022-10-28T06:30:08;15.80;99.90
9980;DHT22;5030;51.532;6.766;2022-10-28T06:32:34;15.70;99.90
9980;DHT22;5030;51.532;6.766;2022-10-28T06:34:59;15.80;99.90
9980;DHT22;5030;51.532;6.766;2022-10-28T06:37:25;15.90;99.90
9980;DHT22;5030;51.532;6.766;2022-10-28T06:39:50;15.90;99.90
9980;DHT22;5030;51.532;6.766;2022-10-28T06:42:18;15.90;99.90
9980;DHT22;5030;51.532;6.766;2022-10-28T06:44:44;16.00;99.90
9980;DHT22;5030;51.532;6.766;2022-10-28T06:47:09;16.00;99.90
9980;DHT22;5030;51.532;6.766;2022-10-28T06:49:35;16.10;99.90
9980;DHT22;5030;51.532;6.766;2022-10-28T06:52:01;16.10;99.90
9980;DHT22;5030;51.532;6.766;2022-10-28T06:54:26;16.10;99.90
9980;DHT22;5030;51.532;6.766;2022-10-28T06:56:52;16.10;99.90
9980;DHT22;5030;51.532;6.766;2022-10-28T06:59:17;16.10;99.90
9980;DHT22;5030;51.532;6.766;2022-10-28T07:01:43;16.10;99.90
9980;DHT22;5030;51.532;6.766;2022-10-28T07:04:12;16.20;99.90
9980;DHT22;5030;51.532;6.766;2022-10-28T07:06:39;16.20;99.90
9980;DHT22;5030;51.532;6.766;2022-10-28T07:09:05;16.20;99.90
9980;DHT22;5030;51.532;6.766;2022-10-28T07:11:31;16.40;99.90
9980;DHT22;5030;51.532;6.766;2022-10-28T07:13:57;16.40;99.90
9980;DHT22;5030;51.532;6.766;2022-10-28T07:16:23;16.50;99.90
9980;DHT22;5030;51.532;6.766;2022-10-28T07:18:49;16.60;99.90
9980;DHT22;5030;51.532;6.766;2022-10-28T07:21:14;16.80;99.90
9980;DHT22;5030;51.532;6.766;2022-10-28T07:23:42;16.90;99.90
9980;DHT22;5030;51.532;6.766;2022-10-28T07:26:10;16.90;99.90
9980;DHT22;5030;51.532;6.766;2022-10-28T07:28:36;16.90;99.90
9980;DHT22;5030;51.532;6.766;2022-10-28T07:31:02;16.90;99.90
9980;DHT22;5030;51.532;6.766;2022-10-28T07:33:28;17.00;99.90
9980;DHT22;5030;51.532;6.766;2022-10-28T07:35:53;17.10;99.90
9980;DHT22;5030;51.532;6.766;2022-10-28T07:38:19;17.10;99.90
9980;DHT22;5030;51.532;6.766;2022-10-28T07:40:45;17.10;99.90
9980;DHT22;5030;51.532;6.766;2022-10-28T07:43:10;17.10;99.90
9980;DHT22;5030;51.532;6.766;2022-10-28T07:45:37;17.10;99.90
9980;DHT22;5030;51.532;6.766;2022-10-28T07:48:03;17.10;99.90
9980;DHT22;5030;51.532;6.766;2022-10-28T07:50:29;17.20;99.90
9980;DHT22;5030;51.532;6.766;2022-10-28T07:52:55;17.30;99.90
9980;DHT22;5030;51.532;6.766;2022-10-28T07:55:22;17.30;99.90
9980;DHT22;5030;51.532;6.766;2022-10-28T07:57:48;17.40;99.90
9980;DHT22;5030;51.532;6.766;2022-10-28T08:00:14;17.30;99.90
9980;DHT22;5030;51.532;6.766;2022-10-28T08:02:40;17.40;99.90
9980;DHT22;5030;51.532;6.766;2022-10-28T08:05:05;17.40;99.90
9980;DHT22;5030;51.532;6.766;2022-10-28T08:07:31;17.40;99.90
9980;DHT22;5030;51.532;6.766;2022-10-28T08:09:57;17.50;99.90
9980;DHT22;5030;51.532;6.766;2022-10-28T08:12:24;17.60;99.90
9980;DHT22;5030;51.532;6.766;2022-10-28T08:14:49;17.70;99.90
9980;DHT22;5030;51.532;6.766;2022-10-28T08:17:15;17.80;99.90
9980;DHT22;5030;51.532;6.766;2022-10-28T08:19:41;17.90;99.90
9980;DHT22;5030;51.532;6.766;2022-10-28T08:22:07;18.00;99.90
9980;DHT22;5030;51.532;6.766;2022-10-28T08:24:32;17.90;99.90
9980;DHT22;5030;51.532;6.766;2022-10-28T08:26:58;18.00;99.90
9980;DHT22;5030;51.532;6.766;2022-10-28T08:29:24;18.20;99.90
9980;DHT22;5030;51.532;6.766;2022-10-28T08:31:49;18.30;99.90
9980;DHT22;5030;51.532;6.766;2022-10-28T08:34:15;18.50;99.90
9980;DHT22;5030;51.532;6.766;2022-10-28T08:36:41;18.60;99.90
9980;DHT22;5030;51.532;6.766;2022-10-28T08:39:06;18.60;99.90
9980;DHT22;5030;51.532;6.766;2022-10-28T08:42:41;18.80;99.90
9980;DHT22;5030;51.532;6.766;2022-10-28T08:44:40;18.80;99.90
9980;DHT22;5030;51.532;6.766;2022-10-28T08:49:40;18.80;99.90
9980;DHT22;5030;51.532;6.766;2022-10-28T08:55:18;18.90;99.90
9980;DHT22;5030;51.532;6.766;2022-10-28T08:57:55;19.10;99.90
9980;DHT22;5030;51.532;6.766;2022-10-28T09:00:31;19.20;99.90
9980;DHT22;5030;51.532;6.766;2022-10-28T09:03:18;19.30;99.90
9980;DHT22;5030;51.532;6.766;2022-10-28T09:05:48;19.30;99.90
9980;DHT22;5030;51.532;6.766;2022-10-28T09:08:24;19.40;99.90
9980;DHT22;5030;51.532;6.766;2022-10-28T09:18:57;19.90;99.90
9980;DHT22;5030;51.532;6.766;2022-10-28T09:21:38;20.00;99.90
9980;DHT22;5030;51.532;6.766;2022-10-28T09:24:19;20.10;99.90
9980;DHT22;5030;51.532;6.766;2022-10-28T09:27:50;20.30;99.90
9980;DHT22;5030;51.532;6.766;2022-10-28T09:35:32;20.70;99.90
9980;DHT22;5030;51.532;6.766;2022-10-28T09:38:26;20.70;99.90
9980;DHT22;5030;51.532;6.766;2022-10-28T09:41:05;20.70;99.90
9980;DHT22;5030;51.532;6.766;2022-10-28T09:43:39;20.80;99.90
9980;DHT22;5030;51.532;6.766;2022-10-28T09:46:14;20.70;99.90
9980;DHT22;5030;51.532;6.766;2022-10-28T09:48:44;20.80;99.90
9980;DHT22;5030;51.532;6.766;2022-10-28T09:51:39;20.80;99.90
9980;DHT22;5030;51.532;6.766;2022-10-28T09:54:09;20.70;99.90
9980;DHT22;5030;51.532;6.766;2022-10-28T09:56:37;20.60;99.90
9980;DHT22;5030;51.532;6.766;2022-10-28T09:59:03;20.70;99.90
9980;DHT22;5030;51.532;6.766;2022-10-28T10:01:34;20.70;99.90
9980;DHT22;5030;51.532;6.766;2022-10-28T10:04:01;20.80;99.90
9980;DHT22;5030;51.532;6.766;2022-10-28T10:06:35;20.90;99.90
9980;DHT22;5030;51.532;6.766;2022-10-28T10:09:03;21.00;99.90
9980;DHT22;5030;51.532;6.766;2022-10-28T10:11:44;21.00;99.90
9980;DHT22;5030;51.532;6.766;2022-10-28T10:14:34;21.20;99.90
9980;DHT22;5030;51.532;6.766;2022-10-28T10:17:05;21.30;99.90
9980;DHT22;5030;51.532;6.766;2022-10-28T10:20:07;21.30;99.90
9980;DHT22;5030;51.532;6.766;2022-10-28T10:22:41;21.40;99.90
9980;DHT22;5030;51.532;6.766;2022-10-28T10:27:42;21.60;99.90
9980;DHT22;5030;51.532;6.766;2022-10-28T10:30:36;21.70;99.90
9980;DHT22;5030;51.532;6.766;2022-10-28T10:33:02;21.70;99.30
9980;DHT22;5030;51.532;6.766;2022-10-28T10:35:34;21.60;99.90
9980;DHT22;5030;51.532;6.766;2022-10-28T10:38:03;21.60;99.90
9980;DHT22;5030;51.532;6.766;2022-10-28T10:40:46;21.60;99.90
9980;DHT22;5030;51.532;6.766;2022-10-28T10:43:31;21.60;99.90
9980;DHT22;5030;51.532;6.766;2022-10-28T10:46:14;21.70;99.90
9980;DHT22;5030;51.532;6.766;2022-10-28T10:48:41;21.60;99.90
9980;DHT22;5030;51.532;6.766;2022-10-28T10:51:23;21.70;99.90
9980;DHT22;5030;51.532;6.766;2022-10-28T10:53:52;21.80;99.90
9980;DHT22;5030;51.532;6.766;2022-10-28T10:56:25;21.90;96.80
9980;DHT22;5030;51.532;6.766;2022-10-28T10:58:53;21.80;99.50
9980;DHT22;5030;51.532;6.766;2022-10-28T11:01:23;21.90;96.40
9980;DHT22;5030;51.532;6.766;2022-10-28T11:06:22;22.00;95.40
9980;DHT22;5030;51.532;6.766;2022-10-28T11:08:49;22.00;97.30
9980;DHT22;5030;51.532;6.766;2022-10-28T11:11:20;21.90;98.20
9980;DHT22;5030;51.532;6.766;2022-10-28T11:13:48;22.10;96.40
9980;DHT22;5030;51.532;6.766;2022-10-28T11:16:26;22.10;96.80
9980;DHT22;5030;51.532;6.766;2022-10-28T11:18:52;22.20;93.60
9980;DHT22;5030;51.532;6.766;2022-10-28T11:21:39;22.20;95.80
9980;DHT22;5030;51.532;6.766;2022-10-28T11:29:45;22.40;92.90
9980;DHT22;5030;51.532;6.766;2022-10-28T11:37:31;22.30;96.60
9980;DHT22;5030;51.532;6.766;2022-10-28T11:43:05;22.40;95.40
9980;DHT22;5030;51.532;6.766;2022-10-28T11:56:38;22.90;90.20
9980;DHT22;5030;51.532;6.766;2022-10-28T12:04:59;22.90;88.30
9980;DHT22;5030;51.532;6.766;2022-10-28T12:07:36;23.00;88.40
9980;DHT22;5030;51.532;6.766;2022-10-28T12:10:20;23.10;86.50
9980;DHT22;5030;51.532;6.766;2022-10-28T12:13:03;23.20;87.60
9980;DHT22;5030;51.532;6.766;2022-10-28T12:23:32;23.60;82.10
9980;DHT22;5030;51.532;6.766;2022-10-28T12:26:00;23.60;82.00
9980;DHT22;5030;51.532;6.766;2022-10-28T12:28:32;23.60;87.10
9980;DHT22;5030;51.532;6.766;2022-10-28T12:31:01;23.60;80.50
9980;DHT22;5030;51.532;6.766;2022-10-28T12:33:35;23.70;74.90
9980;DHT22;5030;51.532;6.766;2022-10-28T12:41:59;23.70;83.80
9980;DHT22;5030;51.532;6.766;2022-10-28T12:44:25;23.70;72.00
9980;DHT22;5030;51.532;6.766;2022-10-28T12:51:59;23.80;74.10
9980;DHT22;5030;51.532;6.766;2022-10-28T12:54:42;23.70;73.60
9980;DHT22;5030;51.532;6.766;2022-10-28T12:57:15;23.80;71.10
9980;DHT22;5030;51.532;6.766;2022-10-28T12:59:52;23.80;72.00
9980;DHT22;5030;51.532;6.766;2022-10-28T13:02:38;23.80;75.80
9980;DHT22;5030;51.532;6.766;2022-10-28T13:05:06;23.70;75.80
9980;DHT22;5030;51.532;6.766;2022-10-28T13:10:41;23.60;83.00
9980;DHT22;5030;51.532;6.766;2022-10-28T13:13:27;23.60;83.90
9980;DHT22;5030;51.532;6.766;2022-10-28T13:16:09;23.70;77.30
9980;DHT22;5030;51.532;6.766;2022-10-28T13:21:30;23.70;83.40
9980;DHT22;5030;51.532;6.766;2022-10-28T13:24:23;23.70;84.00
9980;DHT22;5030;51.532;6.766;2022-10-28T13:26:50;23.60;89.00
9980;DHT22;5030;51.532;6.766;2022-10-28T13:29:24;23.70;79.70
9980;DHT22;5030;51.532;6.766;2022-10-28T13:31:51;23.80;86.00
9980;DHT22;5030;51.532;6.766;2022-10-28T13:34:21;23.80;82.50
9980;DHT22;5030;51.532;6.766;2022-10-28T13:36:56;23.80;85.60
9980;DHT22;5030;51.532;6.766;2022-10-28T13:45:03;23.90;83.30
9980;DHT22;5030;51.532;6.766;2022-10-28T13:47:34;24.00;84.60
9980;DHT22;5030;51.532;6.766;2022-10-28T13:52:39;24.20;80.60
9980;DHT22;5030;51.532;6.766;2022-10-28T13:57:48;24.10;68.70
9980;DHT22;5030;51.532;6.766;2022-10-28T14:03:25;23.80;68.10
9980;DHT22;5030;51.532;6.766;2022-10-28T14:05:56;23.60;57.60
9980;DHT22;5030;51.532;6.766;2022-10-28T14:08:25;23.70;49.00
9980;DHT22;5030;51.532;6.766;2022-10-28T14:11:21;23.60;46.40
9980;DHT22;5030;51.532;6.766;2022-10-28T14:22:01;23.50;37.70
9980;DHT22;5030;51.532;6.766;2022-10-28T14:46:13;22.80;59.90
9980;DHT22;5030;51.532;6.766;2022-10-28T14:48:47;22.70;64.00
9980;DHT22;5030;51.532;6.766;2022-10-28T14:51:23;22.70;64.50
9980;DHT22;5030;51.532;6.766;2022-10-28T14:53:51;22.60;68.30
9980;DHT22;5030;51.532;6.766;2022-10-28T14:56:23;22.50;76.50
9980;DHT22;5030;51.532;6.766;2022-10-28T14:58:49;22.50;72.10
9980;DHT22;5030;51.532;6.766;2022-10-28T15:03:51;22.50;72.90
9980;DHT22;5030;51.532;6.766;2022-10-28T15:06:30;22.60;71.10
9980;DHT22;5030;51.532;6.766;2022-10-28T15:09:03;22.40;84.10
9980;DHT22;5030;51.532;6.766;2022-10-28T15:11:30;22.40;78.90
9980;DHT22;5030;51.532;6.766;2022-10-28T15:14:11;22.30;84.40
9980;DHT22;5030;51.532;6.766;2022-10-28T15:16:48;22.20;82.30
9980;DHT22;5030;51.532;6.766;2022-10-28T15:19:21;22.20;85.00
9980;DHT22;5030;51.532;6.766;2022-10-28T15:22:17;22.10;86.50
9980;DHT22;5030;51.532;6.766;2022-10-28T15:24:53;22.00;89.40
9980;DHT22;5030;51.532;6.766;2022-10-28T15:27:20;21.80;92.30
9980;DHT22;5030;51.532;6.766;2022-10-28T15:29:47;21.80;93.80
9980;DHT22;5030;51.532;6.766;2022-10-28T15:34:49;21.70;93.60
9980;DHT22;5030;51.532;6.766;2022-10-28T15:37:20;21.60;94.60
9980;DHT22;5030;51.532;6.766;2022-10-28T15:39:47;21.60;95.40
9980;DHT22;5030;51.532;6.766;2022-10-28T15:43:30;21.40;96.30
9980;DHT22;5030;51.532;6.766;2022-10-28T15:45:33;21.50;96.80
9980;DHT22;5030;51.532;6.766;2022-10-28T15:48:01;21.40;97.80
9980;DHT22;5030;51.532;6.766;2022-10-28T15:50:33;21.30;99.10
9980;DHT22;5030;51.532;6.766;2022-10-28T15:55:34;21.30;99.60
9980;DHT22;5030;51.532;6.766;2022-10-28T15:58:47;21.10;99.90
9980;DHT22;5030;51.532;6.766;2022-10-28T16:00:55;21.00;99.90
9980;DHT22;5030;51.532;6.766;2022-10-28T16:03:44;21.00;99.90
9980;DHT22;5030;51.532;6.766;2022-10-28T16:06:35;21.00;99.90
9980;DHT22;5030;51.532;6.766;2022-10-28T16:11:27;20.90;99.90
9980;DHT22;5030;51.532;6.766;2022-10-28T16:13:54;20.90;99.90
9980;DHT22;5030;51.532;6.766;2022-10-28T16:16:28;21.00;99.90
9980;DHT22;5030;51.532;6.766;2022-10-28T16:19:30;20.90;99.90
9980;DHT22;5030;51.532;6.766;2022-10-28T16:21:58;20.90;99.90
9980;DHT22;5030;51.532;6.766;2022-10-28T16:24:24;20.90;99.90
9980;DHT22;5030;51.532;6.766;2022-10-28T16:26:50;20.80;99.90
9980;DHT22;5030;51.532;6.766;2022-10-28T16:29:15;20.70;99.90
9980;DHT22;5030;51.532;6.766;2022-10-28T16:31:41;20.60;99.90
9980;DHT22;5030;51.532;6.766;2022-10-28T16:34:12;20.60;99.90
9980;DHT22;5030;51.532;6.766;2022-10-28T16:36:39;20.50;99.90
9980;DHT22;5030;51.532;6.766;2022-10-28T16:39:10;20.40;99.90
9980;DHT22;5030;51.532;6.766;2022-10-28T16:41:37;20.40;99.90
9980;DHT22;5030;51.532;6.766;2022-10-28T16:44:08;20.40;99.90
9980;DHT22;5030;51.532;6.766;2022-10-28T16:46:39;20.20;99.90
9980;DHT22;5030;51.532;6.766;2022-10-28T16:49:04;20.10;99.90
9980;DHT22;5030;51.532;6.766;2022-10-28T16:51:30;20.10;99.90
9980;DHT22;5030;51.532;6.766;2022-10-28T16:53:55;20.00;99.90
9980;DHT22;5030;51.532;6.766;2022-10-28T16:56:21;19.80;99.90
9980;DHT22;5030;51.532;6.766;2022-10-28T16:58:47;19.70;99.90
9980;DHT22;5030;51.532;6.766;2022-10-28T17:01:15;19.50;99.90
9980;DHT22;5030;51.532;6.766;2022-10-28T17:03:42;19.30;99.90
9980;DHT22;5030;51.532;6.766;2022-10-28T17:06:08;19.30;99.90
9980;DHT22;5030;51.532;6.766;2022-10-28T17:08:34;19.10;99.90
9980;DHT22;5030;51.532;6.766;2022-10-28T17:11:00;19.00;99.90
9980;DHT22;5030;51.532;6.766;2022-10-28T17:13:27;18.90;99.90
9980;DHT22;5030;51.532;6.766;2022-10-28T17:15:53;18.80;99.90
9980;DHT22;5030;51.532;6.766;2022-10-28T17:18:19;18.70;99.90
9980;DHT22;5030;51.532;6.766;2022-10-28T17:20:45;18.50;99.90
9980;DHT22;5030;51.532;6.766;2022-10-28T17:23:11;18.50;99.90
9980;DHT22;5030;51.532;6.766;2022-10-28T17:25:38;18.50;99.90
9980;DHT22;5030;51.532;6.766;2022-10-28T17:28:04;18.50;99.90
9980;DHT22;5030;51.532;6.766;2022-10-28T17:30:30;18.50;99.90
9980;DHT22;5030;51.532;6.766;2022-10-28T17:32:55;18.50;99.90
9980;DHT22;5030;51.532;6.766;2022-10-28T17:35:21;18.40;99.90
9980;DHT22;5030;51.532;6.766;2022-10-28T17:37:47;18.40;99.90
9980;DHT22;5030;51.532;6.766;2022-10-28T17:40:14;18.30;99.90
9980;DHT22;5030;51.532;6.766;2022-10-28T17:42:39;18.20;99.90
9980;DHT22;5030;51.532;6.766;2022-10-28T17:45:06;18.20;99.90
9980;DHT22;5030;51.532;6.766;2022-10-28T17:47:34;18.20;99.90
9980;DHT22;5030;51.532;6.766;2022-10-28T17:50:00;18.10;99.90
9980;DHT22;5030;51.532;6.766;2022-10-28T17:52:27;17.90;99.90
9980;DHT22;5030;51.532;6.766;2022-10-28T17:54:53;17.80;99.90
9980;DHT22;5030;51.532;6.766;2022-10-28T17:57:18;17.60;99.90
9980;DHT22;5030;51.532;6.766;2022-10-28T17:59:44;17.40;99.90
9980;DHT22;5030;51.532;6.766;2022-10-28T18:02:11;17.30;99.90
9980;DHT22;5030;51.532;6.766;2022-10-28T18:04:37;17.20;99.90
9980;DHT22;5030;51.532;6.766;2022-10-28T18:07:03;17.10;99.90
9980;DHT22;5030;51.532;6.766;2022-10-28T18:09:29;17.10;99.90
9980;DHT22;5030;51.532;6.766;2022-10-28T18:11:56;17.10;99.90
9980;DHT22;5030;51.532;6.766;2022-10-28T18:14:22;17.00;99.90
9980;DHT22;5030;51.532;6.766;2022-10-28T18:16:48;17.00;99.90
9980;DHT22;5030;51.532;6.766;2022-10-28T18:19:16;17.00;99.90
9980;DHT22;5030;51.532;6.766;2022-10-28T18:21:42;17.00;99.90
9980;DHT22;5030;51.532;6.766;2022-10-28T18:24:09;17.10;99.90
9980;DHT22;5030;51.532;6.766;2022-10-28T18:26:36;17.20;99.90
9980;DHT22;5030;51.532;6.766;2022-10-28T18:29:04;17.30;99.90
9980;DHT22;5030;51.532;6.766;2022-10-28T18:31:31;17.50;99.90
9980;DHT22;5030;51.532;6.766;2022-10-28T18:33:57;17.60;99.90
9980;DHT22;5030;51.532;6.766;2022-10-28T18:36:27;17.70;99.90
9980;DHT22;5030;51.532;6.766;2022-10-28T18:38:55;18.00;99.90
9980;DHT22;5030;51.532;6.766;2022-10-28T18:41:23;18.00;99.90
9980;DHT22;5030;51.532;6.766;2022-10-28T18:43:57;18.10;99.90
9980;DHT22;5030;51.532;6.766;2022-10-28T18:46:23;18.10;99.90
9980;DHT22;5030;51.532;6.766;2022-10-28T18:48:50;18.00;99.90
9980;DHT22;5030;51.532;6.766;2022-10-28T18:51:16;18.00;99.90
9980;DHT22;5030;51.532;6.766;2022-10-28T18:53:46;18.10;99.90
9980;DHT22;5030;51.532;6.766;2022-10-28T18:56:17;18.10;99.90
9980;DHT22;5030;51.532;6.766;2022-10-28T18:58:44;18.20;99.90
9980;DHT22;5030;51.532;6.766;2022-10-28T19:01:21;18.00;99.90
9980;DHT22;5030;51.532;6.766;2022-10-28T19:03:51;17.90;99.90
9980;DHT22;5030;51.532;6.766;2022-10-28T19:06:17;17.90;99.90
9980;DHT22;5030;51.532;6.766;2022-10-28T19:08:43;17.90;99.90
9980;DHT22;5030;51.532;6.766;2022-10-28T19:11:11;17.90;99.90
9980;DHT22;5030;51.532;6.766;2022-10-28T19:13:39;17.90;99.90
9980;DHT22;5030;51.532;6.766;2022-10-28T19:16:06;17.90;99.90